Latest Coastal Weather Observations for Adele Island

IDW60701

Issued at 3:45 pm WST Friday 1 August 2014 (issued every 10 minutes, with the page automatically refreshed every 10 minutes)

About coastal observations | Map of coastal stations | Coastal observations for WA | Marine services | Other Formats
Station Details ID: 200735 Name: ADELE ISLAND Lat: -15.51 Lon: 123.16 Height: 4.6 m
Data from the previous 72 hours. | See also: Recent months for locations in Western Australia
Date/Time
WST
Temp

°C
Wind Pressure Rain
since 9am
mm
Weather Cloud Vis
km
Sea
Height
m
Swell
Dir
 
Speed
knots
Gust
knots
hPa Trend Height
m
Period
s
Dir
01/03:30pm 26.5 E 11 13 1012.3 - - - - - - - - -
01/03:00pm 26.5 E 12 14 1012.0 - - - - - - - - -
01/02:30pm 26.6 E 11 14 1012.1 - - - - - - - - -
01/02:00pm 26.2 ESE 12 15 1012.1 - - - - - - - - -
01/01:30pm 26.1 ESE 12 15 1012.5 - - - - - - - - -
01/01:00pm 26.2 SE 12 15 1012.8 - - - - - - - - -
01/12:30pm 26.3 SE 12 15 1013.1 - - - - - - - - -
01/12:00pm 26.5 SE 13 16 1013.5 - - - - - - - - -
01/11:30am 26.2 SE 13 16 1014.1 - - - - - - - - -
01/11:00am 27.2 SE 11 15 1014.2 - - - - - - - - -
01/10:30am 27.1 ESE 11 13 1014.5 - - - - - - - - -
01/10:00am 26.6 ESE 11 13 1014.6 - - - - - - - - -
01/09:30am 26.2 ESE 9 12 1014.9 - - - - - - - - -
01/09:00am 26.1 ESE 9 12 1015.0 - - - - - - - - -
01/08:30am 25.8 SSE 8 10 1015.0 - - - - - - - - -
01/08:00am 24.9 SSE 8 10 1014.5 - - - - - - - - -
01/07:30am 24.0 SSE 7 8 1014.5 - - - - - - - - -
01/07:00am 24.5 S 8 9 1014.2 - - - - - - - - -
01/06:30am 25.7 SSW 7 7 1014.0 - - - - - - - - -
01/06:00am 24.6 SW 5 7 1013.9 - - - - - - - - -
01/05:30am 25.0 WSW 5 6 1013.8 - - - - - - - - -
01/05:00am 24.8 W 4 5 1013.6 - - - - - - - - -
01/04:30am 24.6 SSW 5 7 1013.8 - - - - - - - - -
01/04:00am 24.1 S 8 10 1013.7 - - - - - - - - -
01/03:30am 25.1 S 9 13 1013.7 - - - - - - - - -
01/03:00am 25.5 WSW 5 6 1013.7 - - - - - - - - -
01/02:30am 25.2 S 5 5 1014.0 - - - - - - - - -
01/02:00am 25.2 S 5 6 1014.0 - - - - - - - - -
01/01:30am 25.3 S 5 6 1014.3 - - - - - - - - -
01/01:00am 25.1 SSW 7 8 1014.3 - - - - - - - - -
01/12:30am 25.9 W 6 7 1014.3 - - - - - - - - -
01/12:00am 26.1 W 6 7 1014.4 - - - - - - - - -
 
Date/Time
WST
Temp

°C
Wind Pressure Rain
since 9am
mm
Weather Cloud Vis
km
Sea
Height
m
Swell
Dir
 
Speed
knots
Gust
knots
hPa Trend Height
m
Period
s
Dir
31/11:30pm 26.0 WSW 7 8 1014.5 - - - - - - - - -
31/11:00pm 26.2 SW 7 8 1014.5 - - - - - - - - -
31/10:30pm 26.0 WSW 7 8 1014.6 - - - - - - - - -
31/10:00pm 25.6 SW 7 7 1014.5 - - - - - - - - -
31/09:30pm 25.6 WSW 7 7 1014.7 - - - - - - - - -
31/09:00pm 25.6 W 7 8 1014.5 - - - - - - - - -
31/08:30pm 25.7 WSW 8 9 1014.4 - - - - - - - - -
31/08:00pm 25.6 W 6 7 1014.4 - - - - - - - - -
31/07:30pm 24.9 CALM 0 0 1014.2 - - - - - - - - -
31/07:00pm 24.8 CALM 0 0 1013.8 - - - - - - - - -
31/06:30pm 24.9 CALM 0 1 1013.5 - - - - - - - - -
31/06:00pm 25.2 CALM 0 0 1013.2 - - - - - - - - -
31/05:30pm 25.6 CALM 0 2 1013.3 - - - - - - - - -
31/05:00pm 26.1 E 4 4 1013.1 - - - - - - - - -
31/04:30pm 26.0 ENE 1 5 1013.1 - - - - - - - - -
31/04:00pm 26.0 E 7 8 1013.0 - - - - - - - - -
31/03:30pm 26.3 ESE 6 8 1013.0 - - - - - - - - -
31/03:00pm 26.0 SE 7 8 1012.9 - - - - - - - - -
31/02:30pm 26.0 SE 7 8 1013.0 - - - - - - - - -
31/02:00pm 26.2 SE 7 9 1013.3 - - - - - - - - -
31/01:30pm 26.8 SSW 5 12 1013.7 - - - - - - - - -
31/01:00pm 27.0 SSW 6 8 1014.0 - - - - - - - - -
31/12:30pm 25.6 SW 8 10 1014.5 - - - - - - - - -
31/12:00pm 25.8 SSW 7 9 1014.8 - - - - - - - - -
31/11:30am 26.0 SSW 8 10 1015.1 - - - - - - - - -
31/11:00am 26.6 SW 8 11 1015.2 - - - - - - - - -
31/10:30am 26.2 SSW 8 11 1015.6 - - - - - - - - -
31/10:00am 26.1 S 9 11 1015.9 - - - - - - - - -
31/09:30am 26.4 SSW 8 10 1016.1 - - - - - - - - -
31/09:00am 26.8 S 7 9 1016.0 - - - - - - - - -
31/08:30am 26.7 S 7 8 1016.2 - - - - - - - - -
31/08:00am 26.3 SW 4 6 1016.0 - - - - - - - - -
31/07:30am 25.7 SSW 5 6 1016.0 - - - - - - - - -
31/07:00am 25.7 SSW 5 6 1015.8 - - - - - - - - -
31/06:30am 25.4 SSW 6 6 1015.8 - - - - - - - - -
31/06:00am 25.1 S 8 9 1015.6 - - - - - - - - -
31/05:30am 23.9 S 9 11 1015.6 - - - - - - - - -
31/05:00am 24.3 S 9 11 1015.5 - - - - - - - - -
31/04:30am 25.0 E 5 5 1015.3 - - - - - - - - -
31/04:00am 24.8 E 4 5 1015.2 - - - - - - - - -
31/03:30am 24.8 NE 3 4 1015.3 - - - - - - - - -
31/03:00am 25.0 NE 3 4 1015.2 - - - - - - - - -
31/02:30am 24.7 CALM 0 0 1015.2 - - - - - - - - -
31/02:00am 24.8 CALM 0 0 1015.1 - - - - - - - - -
31/01:30am 24.9 CALM 0 0 1015.4 - - - - - - - - -
31/01:00am 25.0 CALM 0 1 1015.3 - - - - - - - - -
31/12:30am 25.2 CALM 0 0 1015.6 - - - - - - - - -
31/12:00am 25.3 CALM 0 0 1015.6 - - - - - - - - -
 
Date/Time
WST
Temp

°C
Wind Pressure Rain
since 9am
mm
Weather Cloud Vis
km
Sea
Height
m
Swell
Dir
 
Speed
knots
Gust
knots
hPa Trend Height
m
Period
s
Dir
30/11:30pm 25.1 N 3 3 1015.8 - - - - - - - - -
30/11:00pm 24.5 CALM 0 0 1015.6 - - - - - - - - -
30/10:30pm 25.1 N 2 4 1015.7 - - - - - - - - -
30/10:00pm 25.0 N 1 3 1015.4 - - - - - - - - -
30/09:30pm 24.9 CALM 0 0 1015.6 - - - - - - - - -
30/09:00pm 25.1 ESE 4 5 1015.5 - - - - - - - - -
30/08:30pm 25.3 S 7 9 1015.4 - - - - - - - - -
30/08:00pm 25.2 S 8 9 1015.3 - - - - - - - - -
30/07:30pm 25.5 SSW 8 8 1015.0 - - - - - - - - -
30/07:00pm 26.0 SW 7 8 1014.7 - - - - - - - - -
30/06:30pm 25.9 SW 7 8 1014.7 - - - - - - - - -
30/06:00pm 25.9 SSW 7 8 1014.4 - - - - - - - - -
30/05:30pm 25.6 SSW 7 7 1014.5 - - - - - - - - -
30/05:00pm 26.1 SSW 6 7 1014.3 - - - - - - - - -
30/04:30pm 26.5 SSW 5 7 1014.3 - - - - - - - - -
30/04:00pm 26.7 SSW 6 8 1014.0 - - - - - - - - -
30/03:30pm 27.1 SW 7 8 1013.9 - - - - - - - - -
30/03:00pm 27.3 S 7 9 1013.7 - - - - - - - - -
30/02:30pm 27.5 SSE 8 10 1013.9 - - - - - - - - -
30/02:00pm 27.1 SSE 8 10 1014.0 - - - - - - - - -
30/01:30pm 27.5 SE 8 10 1014.2 - - - - - - - - -
30/01:00pm 26.7 ESE 9 11 1014.7 - - - - - - - - -
30/12:30pm 27.2 ESE 10 11 1015.1 - - - - - - - - -
30/12:00pm 27.8 SE 9 11 1015.4 - - - - - - - - -
30/11:30am 27.2 SE 9 11 1015.5 - - - - - - - - -
30/11:00am 27.8 SE 7 11 1015.9 - - - - - - - - -
30/10:30am 27.7 SE 7 10 1016.2 - - - - - - - - -
30/10:00am 27.7 SE 6 9 1016.5 - - - - - - - - -
30/09:30am 27.8 ESE 5 6 1016.9 - - - - - - - - -
30/09:00am 28.1 SSE 4 6 1017.1 - - - - - - - - -
30/08:30am 27.6 ESE 3 6 1017.3 - - - - - - - - -
30/08:00am 26.3 E 2 4 1017.0 - - - - - - - - -
30/07:30am 25.1 WSW 4 5 1016.9 - - - - - - - - -
30/07:00am 25.4 N 5 5 1016.3 - - - - - - - - -
30/06:30am 25.3 WSW 4 5 1016.2 - - - - - - - - -
30/06:00am 25.4 WSW 5 6 1015.9 - - - - - - - - -
30/05:30am 25.3 WSW 4 5 1015.9 - - - - - - - - -
30/05:00am 25.4 WSW 4 6 1015.3 - - - - - - - - -
30/04:30am 25.3 W 3 6 1015.4 - - - - - - - - -
30/04:00am 25.0 CALM 0 0 1015.4 - - - - - - - - -
30/03:30am 25.7 CALM 0 0 1015.4 - - - - - - - - -
30/03:00am 25.2 CALM 0 0 1015.3 - - - - - - - - -
30/02:30am 25.2 CALM 0 0 1015.4 - - - - - - - - -
30/02:00am 25.6 CALM 0 0 1015.5 - - - - - - - - -
30/01:30am 25.5 CALM 0 0 1015.7 - - - - - - - - -
30/01:00am 25.3 CALM 0 0 1015.7 - - - - - - - - -
30/12:30am 25.3 CALM 0 0 1015.8 - - - - - - - - -
30/12:00am 25.6 CALM 0 0 1015.9 - - - - - - - - -
 
Date/Time
WST
Temp

°C
Wind Pressure Rain
since 9am
mm
Weather Cloud Vis
km
Sea
Height
m
Swell
Dir
 
Speed
knots
Gust
knots
hPa Trend Height
m
Period
s
Dir
29/11:30pm 26.0 WSW 4 5 1015.9 - - - - - - - - -
29/11:00pm 26.0 WSW 5 5 1015.9 - - - - - - - - -
29/10:30pm 25.9 SW 5 6 1015.9 - - - - - - - - -
29/10:00pm 25.9 SSW 6 7 1015.8 - - - - - - - - -
29/09:30pm 26.0 SSW 7 7 1015.9 - - - - - - - - -
29/09:00pm 25.9 S 7 7 1015.7 - - - - - - - - -
29/08:30pm 25.8 SSW 6 7 1015.8 - - - - - - - - -
29/08:00pm 24.7 S 7 9 1015.4 - - - - - - - - -
29/07:30pm 24.6 S 9 10 1015.3 - - - - - - - - -
29/07:00pm 24.7 S 9 11 1015.1 - - - - - - - - -
29/06:30pm 24.8 S 8 9 1015.1 - - - - - - - - -
29/06:00pm 25.1 S 8 8 1014.8 - - - - - - - - -
29/05:30pm 25.6 SSW 7 8 1014.7 - - - - - - - - -
29/05:00pm 26.2 S 6 8 1014.3 - - - - - - - - -
29/04:30pm 27.1 S 8 10 1014.1 - - - - - - - - -
29/04:00pm 27.3 S 8 9 1013.9 - - - - - - - - -

Other Formats:

Comma delimited format used in spreadsheet applications
http://www.bom.gov.au/fwo/IDW60701/IDW60701.94210.axf

JavaScript Object Notation format (JSON) in row-major order
http://www.bom.gov.au/fwo/IDW60701/IDW60701.94210.json